Terminal Aerodrome Forecast
Issued by NWS

Home | Current Version | Previous Version | Text Only | Print | Product List | Glossary On
Versions: 1 2 3 4 5 6 7 8 9 10 11 12 13 14 15 16 17
000
FTAK31 PAFA 161132
TAFAFA
TAF
PAFA 161132Z 1612/1718 VRB03KT P6SM OVC110
     FM161500 03004KT P6SM VCSH BKN040 BKN100
     FM162100 VRB03KT P6SM -SN BKN025 OVC050
     FM170700 VRB03KT P6SM VCSH SCT025 OVC050
     FM171600 VRB03KT 4SM -SN BR BKN025 OVC050=

USA.gov is the U.S. government's official web portal to all federal, state and local government web resources and services.